Terminal Aerodrome Forecast
Issued by NWS Bismarck, ND

Home | Current Version | Previous Version | Graphics & Text | Print | Product List | Glossary On
Versions: 1 2 3 4 5 6 7 8 9 10 11 12 13 14 15 16 17 18 19 20 21 22 23 24 25 26 27 28 29 30 31 32 33
798
FTUS43 KBIS 261313 AAB
TAFISN
TAF AMD
KISN 261313Z 2613/2712 00000KT 2SM -SN BR OVC028
     FM261500 17005KT P6SM VCSH OVC030
     FM262200 31007KT P6SM OVC025
     FM271000 04004KT 5SM -SN OVC015=

USA.gov is the U.S. government's official web portal to all federal, state and local government web resources and services.